Terminal Aerodrome Forecast
Issued by NWS

Home | Current Version | Previous Version | Text Only | Print | Product List | Glossary On
Versions: 1 2 3 4 5 6 7 8 9 10 11 12 13 14 15 16 17
000
FTUS43 KMQT 162320
TAFCMX
TAF
KCMX 162320Z 1700/1724 10008KT P6SM BKN080
     FM170700 10009KT P6SM VCSH BKN030
     FM170900 10009KT P6SM -SHRA OVC010
     FM171100 10010KT 4SM -SHRA BR OVC008
     FM171500 10012G20KT 3SM BR VCSH OVC003
     FM171600 10012G20KT 3SM BR VCSH OVC008
     FM172100 09008KT 2SM -SHRA BR OVC008=

USA.gov is the U.S. government's official web portal to all federal, state and local government web resources and services.